Reuben, Nebraska
Current Conditions -  °F | °C
As of 10:55 AM on Tuesday 27 Jan 2015 (Local Time) from KHDE Reporting Station
Clear Clear  
Wind Chill: 47°   Ceiling: Unl
Heat Index: 50°   Visibility: 10mi
Dew Point: 31°   Wind: 7mph
Humidity: 49%   Direction: 260°W
Pressure: 30.04"   Gusts: NA
Location:  40.2849°N, 99.6171°W
Report Text: KHDE 271655Z AUTO 26006KT 10SM CLR 10/00 A3004 RMK AO2 T00991003
Loading
Personal Weather Stations






























Interactive Weather Map New forecast layout! Learn more

10-Day Weather Forecast

Advertisements
Track Severe Weather on mobile